createdAt,value
2019-06-26T00:00:55.778Z,27.25
2019-06-26T00:01:55.789Z,27.19
2019-06-26T00:02:55.775Z,27.13
2019-06-26T00:03:55.739Z,27.14
2019-06-26T00:04:55.731Z,27.12
2019-06-26T00:05:55.715Z,27.09
2019-06-26T00:06:55.926Z,27.13
2019-06-26T00:07:55.708Z,27.10
2019-06-26T00:08:55.705Z,27.17
2019-06-26T00:09:55.684Z,27.09
2019-06-26T00:10:55.673Z,26.99
2019-06-26T00:11:55.684Z,26.95
2019-06-26T00:12:55.651Z,27.03
2019-06-26T00:13:55.671Z,26.95
2019-06-26T00:14:55.659Z,27.00
2019-06-26T00:15:55.717Z,27.02
2019-06-26T00:16:55.665Z,27.03
2019-06-26T00:17:55.668Z,27.03
2019-06-26T00:18:55.683Z,27.04
2019-06-26T00:19:55.590Z,27.02
2019-06-26T00:20:55.589Z,27.00
2019-06-26T00:21:55.599Z,26.99
2019-06-26T00:22:55.551Z,26.94
2019-06-26T00:23:55.581Z,26.92
2019-06-26T00:24:55.531Z,26.89
2019-06-26T00:25:55.552Z,26.85
2019-06-26T00:26:55.537Z,26.91
2019-06-26T00:27:55.611Z,26.94
2019-06-26T00:28:55.487Z,26.87
2019-06-26T00:29:55.473Z,26.89
2019-06-26T00:30:55.463Z,26.88
2019-06-26T00:31:55.472Z,26.82
2019-06-26T00:32:55.451Z,26.87
2019-06-26T00:33:55.428Z,26.81
2019-06-26T00:34:55.413Z,26.84
2019-06-26T00:35:55.407Z,26.87
2019-06-26T00:36:55.407Z,26.89
2019-06-26T00:37:55.457Z,26.81
2019-06-26T00:38:55.367Z,26.81
2019-06-26T00:39:55.384Z,26.81
2019-06-26T00:40:55.361Z,26.76
2019-06-26T00:41:55.432Z,26.84
2019-06-26T00:42:55.367Z,26.77
2019-06-26T00:43:55.331Z,26.75
2019-06-26T00:44:55.317Z,26.80
2019-06-26T00:45:55.298Z,26.82
2019-06-26T00:46:55.308Z,26.77
2019-06-26T00:47:55.279Z,26.81
2019-06-26T00:48:55.270Z,26.84
2019-06-26T00:49:55.277Z,26.77
2019-06-26T00:50:55.244Z,26.77
2019-06-26T00:51:55.274Z,26.80
2019-06-26T00:52:55.240Z,26.70
2019-06-26T00:53:55.218Z,26.85
2019-06-26T00:54:55.217Z,26.77
2019-06-26T00:55:55.354Z,26.66
2019-06-26T00:56:55.220Z,26.77
2019-06-26T00:57:55.242Z,26.70
2019-06-26T00:58:55.159Z,26.72
2019-06-26T00:59:55.153Z,26.72
2019-06-26T01:00:55.153Z,26.70
2019-06-26T01:01:55.157Z,26.72
2019-06-26T01:02:55.123Z,26.70
2019-06-26T01:03:55.121Z,26.67
2019-06-26T01:04:55.114Z,26.77
2019-06-26T01:05:55.085Z,26.69
2019-06-26T01:06:55.109Z,26.75
2019-06-26T01:07:55.095Z,26.73
2019-06-26T01:08:55.060Z,26.66
2019-06-26T01:09:55.056Z,26.73
2019-06-26T01:10:55.060Z,26.63
2019-06-26T01:11:55.028Z,26.60
2019-06-26T01:12:55.045Z,26.62
2019-06-26T01:13:58.291Z,26.62
2019-06-26T01:14:55.001Z,26.62
2019-06-26T01:15:55.005Z,26.57
2019-06-26T01:16:55.002Z,26.60
2019-06-26T01:17:54.999Z,26.54
2019-06-26T01:18:54.969Z,26.57
2019-06-26T01:19:54.937Z,26.55
2019-06-26T01:20:54.987Z,26.55
2019-06-26T01:21:54.942Z,26.45
2019-06-26T01:22:54.943Z,26.52
2019-06-26T01:23:54.908Z,26.54
2019-06-26T01:24:54.896Z,26.50
2019-06-26T01:25:54.884Z,26.45
2019-06-26T01:26:54.863Z,26.48
2019-06-26T01:27:54.887Z,26.51
2019-06-26T01:28:54.854Z,26.43
2019-06-26T01:29:54.841Z,26.47
2019-06-26T01:30:54.821Z,26.39
2019-06-26T01:31:54.819Z,26.33
2019-06-26T01:32:54.827Z,26.40
2019-06-26T01:33:54.798Z,26.44
2019-06-26T01:34:54.786Z,26.36
2019-06-26T01:35:54.781Z,26.36
2019-06-26T01:36:54.763Z,26.30
2019-06-26T01:37:54.792Z,26.29
2019-06-26T01:38:55.665Z,26.32
2019-06-26T01:39:54.753Z,26.37
2019-06-26T01:40:54.745Z,26.33
2019-06-26T01:41:54.727Z,26.30
2019-06-26T01:42:54.743Z,26.35
2019-06-26T01:43:54.701Z,26.32
2019-06-26T01:44:54.695Z,26.28
2019-06-26T01:45:54.695Z,26.30
2019-06-26T01:46:54.665Z,26.25
2019-06-26T01:47:54.674Z,26.18
2019-06-26T01:48:54.638Z,26.26
2019-06-26T01:49:54.631Z,26.21
2019-06-26T01:50:54.615Z,26.25
2019-06-26T01:51:54.603Z,26.30
2019-06-26T01:52:54.607Z,26.26
2019-06-26T01:53:54.593Z,26.21
2019-06-26T01:54:54.570Z,26.21
2019-06-26T01:55:54.567Z,26.28
2019-06-26T01:56:54.550Z,26.21
2019-06-26T01:57:54.571Z,26.25
2019-06-26T01:58:54.539Z,26.12
2019-06-26T01:59:54.539Z,26.12
2019-06-26T02:00:54.517Z,26.07
2019-06-26T02:01:54.517Z,26.17
2019-06-26T02:02:54.547Z,26.12
2019-06-26T02:03:54.479Z,26.10
2019-06-26T02:04:54.490Z,26.12
2019-06-26T02:05:54.451Z,26.06
2019-06-26T02:06:54.446Z,26.15
2019-06-26T02:07:54.469Z,26.05
2019-06-26T02:08:54.498Z,26.05
2019-06-26T02:09:54.409Z,26.06
2019-06-26T02:10:54.423Z,26.12
2019-06-26T02:11:54.392Z,26.07
2019-06-26T02:12:54.432Z,25.95
2019-06-26T02:13:54.371Z,26.06
2019-06-26T02:14:54.377Z,25.97
2019-06-26T02:15:54.351Z,26.05
2019-06-26T02:16:54.352Z,26.07
2019-06-26T02:17:54.356Z,26.02
2019-06-26T02:18:54.320Z,26.05
2019-06-26T02:19:54.307Z,25.98
2019-06-26T02:20:54.376Z,25.99
2019-06-26T02:21:54.293Z,25.98
2019-06-26T02:22:54.332Z,25.97
2019-06-26T02:23:54.272Z,25.95
2019-06-26T02:24:54.334Z,25.94
2019-06-26T02:25:54.247Z,25.82
2019-06-26T02:26:54.256Z,25.90
2019-06-26T02:27:54.259Z,25.87
2019-06-26T02:28:54.228Z,25.85
2019-06-26T02:29:54.199Z,25.87
2019-06-26T02:30:54.197Z,25.79
2019-06-26T02:31:54.328Z,25.77
2019-06-26T02:32:54.187Z,25.77
2019-06-26T02:33:54.181Z,25.75
2019-06-26T02:34:54.202Z,25.80
2019-06-26T02:35:54.153Z,25.75
2019-06-26T02:36:54.185Z,25.75
2019-06-26T02:37:54.159Z,25.79
2019-06-26T02:38:54.117Z,25.77
2019-06-26T02:39:54.122Z,25.73
2019-06-26T02:40:54.136Z,25.72
2019-06-26T02:41:54.093Z,25.70
2019-06-26T02:42:54.075Z,25.62
2019-06-26T02:43:54.093Z,25.80
2019-06-26T02:44:54.708Z,25.67
2019-06-26T02:45:54.067Z,25.70
2019-06-26T02:46:54.051Z,25.72
2019-06-26T02:47:54.016Z,25.65
2019-06-26T02:48:54.028Z,25.61
2019-06-26T02:49:53.998Z,25.70
2019-06-26T02:50:53.993Z,25.61
2019-06-26T02:51:53.999Z,25.67
2019-06-26T02:52:53.968Z,25.69
2019-06-26T02:53:53.948Z,25.62
2019-06-26T02:54:54.030Z,25.58
2019-06-26T02:55:53.940Z,25.52
2019-06-26T02:56:53.938Z,25.67
2019-06-26T02:57:53.915Z,25.57
2019-06-26T02:58:53.899Z,25.55
2019-06-26T02:59:53.933Z,25.61
2019-06-26T03:00:53.871Z,25.60
2019-06-26T03:01:53.879Z,25.57
2019-06-26T03:02:53.865Z,25.52
2019-06-26T03:03:53.873Z,25.62
2019-06-26T03:04:53.890Z,25.60
2019-06-26T03:05:53.893Z,25.52
2019-06-26T03:06:53.808Z,25.54
2019-06-26T03:07:53.810Z,25.60
2019-06-26T03:08:53.812Z,25.52
2019-06-26T03:09:53.846Z,25.55
2019-06-26T03:10:53.769Z,25.55
2019-06-26T03:11:53.801Z,25.54
2019-06-26T03:12:53.757Z,25.55
2019-06-26T03:13:53.748Z,25.52
2019-06-26T03:15:07.814Z,25.57
2019-06-26T03:15:54.718Z,25.58
2019-06-26T03:16:53.731Z,25.47
2019-06-26T03:17:55.661Z,25.50
2019-06-26T03:18:53.685Z,25.52
2019-06-26T03:19:53.686Z,25.57
2019-06-26T03:20:53.716Z,25.52
2019-06-26T03:21:53.662Z,25.54
2019-06-26T03:22:53.643Z,25.47
2019-06-26T03:23:53.637Z,25.50
2019-06-26T03:24:53.623Z,25.46
2019-06-26T03:25:53.656Z,25.47
2019-06-26T03:26:53.622Z,25.51
2019-06-26T03:27:53.589Z,25.52
2019-06-26T03:28:53.583Z,25.46
2019-06-26T03:29:53.575Z,25.47
2019-06-26T03:30:53.610Z,25.54
2019-06-26T03:31:53.554Z,25.51
2019-06-26T03:32:53.577Z,25.50
2019-06-26T03:33:53.530Z,25.51
2019-06-26T03:34:53.519Z,25.50
2019-06-26T03:35:53.627Z,25.50
2019-06-26T03:36:53.538Z,25.47
2019-06-26T03:37:53.491Z,25.51
2019-06-26T03:38:53.485Z,25.47
2019-06-26T03:39:53.463Z,25.52
2019-06-26T03:40:53.460Z,25.57
2019-06-26T03:41:53.467Z,25.52
2019-06-26T03:42:53.439Z,25.57
2019-06-26T03:43:53.435Z,25.52
2019-06-26T03:44:53.416Z,25.60
2019-06-26T03:45:53.401Z,25.55
2019-06-26T03:46:53.768Z,25.52
2019-06-26T03:47:53.390Z,25.54
2019-06-26T03:48:53.379Z,25.58
2019-06-26T03:49:53.400Z,25.43
2019-06-26T03:50:53.357Z,25.42
2019-06-26T03:51:53.367Z,25.39
2019-06-26T03:52:53.331Z,25.40
2019-06-26T03:53:53.321Z,25.38
2019-06-26T03:54:53.320Z,25.38
2019-06-26T03:55:53.306Z,25.43
2019-06-26T03:56:53.737Z,25.40
2019-06-26T03:57:54.287Z,25.38
2019-06-26T03:58:53.282Z,25.46
2019-06-26T03:59:53.274Z,25.45
2019-06-26T04:00:53.279Z,25.45
2019-06-26T04:01:53.298Z,25.46
2019-06-26T04:02:53.295Z,25.40
2019-06-26T04:03:53.211Z,25.46
2019-06-26T04:04:53.202Z,25.38
2019-06-26T04:05:53.186Z,25.46
2019-06-26T04:06:53.191Z,25.43
2019-06-26T04:07:53.195Z,25.33
2019-06-26T04:08:53.155Z,25.43
2019-06-26T04:09:53.145Z,25.39
2019-06-26T04:10:53.156Z,25.45
2019-06-26T04:11:53.150Z,25.33
2019-06-26T04:12:53.239Z,25.35
2019-06-26T04:13:53.107Z,25.32
2019-06-26T04:14:53.115Z,25.24
2019-06-26T04:15:53.088Z,25.25
2019-06-26T04:16:53.092Z,25.25
2019-06-26T04:17:53.211Z,25.27
2019-06-26T04:18:53.070Z,25.18
2019-06-26T04:19:53.059Z,25.28
2019-06-26T04:20:53.035Z,25.18
2019-06-26T04:21:53.022Z,25.18
2019-06-26T04:22:53.050Z,25.17
2019-06-26T04:23:53.039Z,25.13
2019-06-26T04:24:53.022Z,25.18
2019-06-26T04:25:52.976Z,25.17
2019-06-26T04:26:52.963Z,25.09
2019-06-26T04:27:53.002Z,25.13
2019-06-26T04:28:52.950Z,25.06
2019-06-26T04:29:52.949Z,25.06
2019-06-26T04:30:52.931Z,25.03
2019-06-26T04:31:52.994Z,25.14
2019-06-26T04:32:52.931Z,25.13
2019-06-26T04:33:52.891Z,25.08
2019-06-26T04:34:54.558Z,25.06
2019-06-26T04:35:52.875Z,25.13
2019-06-26T04:36:52.883Z,25.14
2019-06-26T04:37:52.859Z,25.15
2019-06-26T04:38:52.859Z,25.13
2019-06-26T04:39:52.865Z,25.13
2019-06-26T04:40:52.826Z,25.15
2019-06-26T04:41:52.827Z,25.20
2019-06-26T04:42:52.807Z,25.08
2019-06-26T04:43:52.828Z,25.05
2019-06-26T04:44:52.775Z,25.13
2019-06-26T04:45:57.998Z,25.05
2019-06-26T04:46:53.783Z,25.08
2019-06-26T04:47:52.749Z,25.15
2019-06-26T04:48:52.768Z,25.08
2019-06-26T04:49:52.721Z,25.14
2019-06-26T04:50:52.713Z,25.17
2019-06-26T04:51:52.809Z,25.15
2019-06-26T04:52:52.697Z,25.18
2019-06-26T04:53:55.641Z,25.30
2019-06-26T04:54:52.668Z,25.35
2019-06-26T04:55:52.692Z,25.57
2019-06-26T04:56:52.665Z,25.99
2019-06-26T04:57:52.643Z,26.21
2019-06-26T04:58:52.736Z,26.23
2019-06-26T04:59:52.681Z,26.09
2019-06-26T05:00:52.716Z,25.88
2019-06-26T05:01:52.593Z,25.83
2019-06-26T05:02:52.595Z,25.79
2019-06-26T05:03:52.573Z,25.77
2019-06-26T05:04:52.751Z,25.75
2019-06-26T05:05:52.557Z,25.62
2019-06-26T05:06:52.561Z,25.60
2019-06-26T05:07:53.797Z,25.60
2019-06-26T05:08:52.604Z,25.54
2019-06-26T05:09:52.537Z,25.52
2019-06-26T05:10:52.514Z,25.43
2019-06-26T05:11:52.533Z,25.40
2019-06-26T05:12:52.500Z,25.51
2019-06-26T05:13:52.472Z,25.45
2019-06-26T05:14:52.479Z,25.55
2019-06-26T05:15:52.452Z,25.55
2019-06-26T05:16:52.499Z,25.52
2019-06-26T05:17:52.432Z,25.57
2019-06-26T05:18:52.421Z,25.54
2019-06-26T05:19:53.196Z,25.61
2019-06-26T05:20:52.427Z,25.64
2019-06-26T05:21:52.445Z,25.67
2019-06-26T05:22:53.328Z,25.73
2019-06-26T05:23:52.398Z,25.72
2019-06-26T05:24:52.382Z,25.75
2019-06-26T05:25:52.392Z,25.75
2019-06-26T05:26:52.336Z,25.75
2019-06-26T05:27:52.326Z,25.83
2019-06-26T05:28:52.337Z,25.85
2019-06-26T05:29:54.391Z,25.91
2019-06-26T05:30:52.326Z,25.92
2019-06-26T05:31:52.392Z,25.91
2019-06-26T05:32:52.268Z,25.94
2019-06-26T05:33:52.279Z,25.95
2019-06-26T05:34:52.590Z,25.87
2019-06-26T05:35:52.282Z,25.90
2019-06-26T05:36:52.252Z,25.83
2019-06-26T05:37:52.224Z,25.91
2019-06-26T05:38:52.225Z,26.01
2019-06-26T05:39:54.730Z,25.98
2019-06-26T05:40:52.188Z,25.95
2019-06-26T05:41:52.196Z,26.12
2019-06-26T05:42:52.168Z,26.15
2019-06-26T05:43:52.156Z,26.09
2019-06-26T05:44:52.145Z,26.12
2019-06-26T05:45:52.148Z,26.23
2019-06-26T05:46:52.152Z,26.25
2019-06-26T05:47:52.127Z,26.25
2019-06-26T05:48:52.100Z,26.35
2019-06-26T05:49:52.090Z,26.37
2019-06-26T05:50:52.088Z,26.44
2019-06-26T05:51:52.098Z,26.35
2019-06-26T05:52:52.069Z,26.47
2019-06-26T05:53:52.058Z,26.47
2019-06-26T05:54:52.059Z,26.47
2019-06-26T05:55:52.049Z,26.44
2019-06-26T05:56:52.109Z,26.58
2019-06-26T05:57:52.039Z,26.58
2019-06-26T05:58:51.995Z,26.72
2019-06-26T05:59:52.002Z,26.70
2019-06-26T06:00:51.991Z,26.70
2019-06-26T06:01:51.964Z,26.80
2019-06-26T06:02:53.987Z,26.82
2019-06-26T06:03:51.941Z,26.77
2019-06-26T06:04:51.946Z,26.85
2019-06-26T06:05:51.975Z,26.84
2019-06-26T06:06:52.301Z,26.92
2019-06-26T06:07:51.913Z,27.00
2019-06-26T06:08:51.909Z,26.94
2019-06-26T06:09:51.888Z,27.12
2019-06-26T06:10:51.884Z,27.13
2019-06-26T06:11:51.892Z,27.21
2019-06-26T06:12:51.897Z,27.22
2019-06-26T06:13:51.864Z,27.24
2019-06-26T06:14:51.841Z,27.27
2019-06-26T06:15:51.820Z,27.36
2019-06-26T06:16:51.819Z,27.51
2019-06-26T06:17:51.827Z,27.43
2019-06-26T06:18:51.788Z,27.49
2019-06-26T06:19:51.782Z,27.44
2019-06-26T06:20:51.788Z,27.59
2019-06-26T06:21:51.760Z,27.62
2019-06-26T06:22:51.760Z,27.79
2019-06-26T06:23:51.741Z,27.70
2019-06-26T06:24:51.721Z,27.79
2019-06-26T06:25:51.713Z,27.87
2019-06-26T06:26:51.715Z,27.82
2019-06-26T06:27:51.716Z,27.84
2019-06-26T06:28:51.735Z,27.93
2019-06-26T06:29:51.719Z,27.93
2019-06-26T06:30:51.675Z,28.00
2019-06-26T06:31:51.662Z,27.93
2019-06-26T06:32:51.655Z,28.11
2019-06-26T06:33:51.671Z,28.09
2019-06-26T06:34:51.630Z,28.18
2019-06-26T06:35:51.643Z,28.27
2019-06-26T06:36:51.606Z,28.29
2019-06-26T06:37:51.619Z,28.27
2019-06-26T06:38:51.600Z,28.36
2019-06-26T06:39:51.573Z,28.37
2019-06-26T06:40:51.579Z,28.37
2019-06-26T06:41:51.582Z,28.44
2019-06-26T06:42:51.553Z,28.43
2019-06-26T06:43:51.590Z,28.55
2019-06-26T06:44:52.226Z,28.51
2019-06-26T06:45:51.508Z,28.61
2019-06-26T06:47:03.353Z,28.64
2019-06-26T06:47:52.495Z,28.66
2019-06-26T06:48:51.517Z,28.76
2019-06-26T06:49:51.523Z,28.77
2019-06-26T06:50:51.463Z,28.78
2019-06-26T06:51:51.468Z,28.80
2019-06-26T06:52:51.444Z,28.89
2019-06-26T06:53:51.416Z,28.96
2019-06-26T06:54:51.426Z,28.95
2019-06-26T06:55:51.405Z,28.96
2019-06-26T06:56:51.388Z,28.96
2019-06-26T06:57:51.388Z,29.08
2019-06-26T06:58:51.375Z,29.05
2019-06-26T06:59:51.411Z,28.98
2019-06-26T07:00:51.348Z,29.18
2019-06-26T07:01:51.349Z,29.18
2019-06-26T07:02:51.343Z,29.30
2019-06-26T07:03:51.321Z,29.30
2019-06-26T07:04:51.372Z,29.34
2019-06-26T07:05:52.241Z,29.41
2019-06-26T07:06:51.286Z,29.39
2019-06-26T07:07:51.277Z,29.37
2019-06-26T07:08:51.277Z,29.42
2019-06-26T07:09:51.291Z,29.41
2019-06-26T07:10:51.278Z,29.52
2019-06-26T07:11:51.260Z,29.60
2019-06-26T07:12:51.226Z,29.58
2019-06-26T07:13:51.215Z,29.73
2019-06-26T07:14:51.201Z,29.67
2019-06-26T07:15:51.202Z,29.68
2019-06-26T07:16:51.196Z,29.76
2019-06-26T07:17:51.169Z,29.79
2019-06-26T07:18:51.164Z,29.83
2019-06-26T07:19:51.185Z,29.86
2019-06-26T07:20:51.179Z,29.90
2019-06-26T07:21:51.148Z,29.97
2019-06-26T07:22:51.118Z,30.02
2019-06-26T07:23:51.106Z,30.11
2019-06-26T07:24:51.110Z,30.08
2019-06-26T07:25:51.114Z,30.13
2019-06-26T07:26:51.072Z,30.19
2019-06-26T07:27:51.083Z,30.15
2019-06-26T07:28:51.056Z,30.20
2019-06-26T07:29:51.048Z,30.19
2019-06-26T07:30:51.100Z,30.20
2019-06-26T07:31:51.028Z,30.19
2019-06-26T07:32:51.017Z,30.32
2019-06-26T07:33:51.029Z,30.34
2019-06-26T07:34:50.993Z,30.43
2019-06-26T07:35:51.038Z,30.45
2019-06-26T07:36:50.971Z,30.60
2019-06-26T07:37:50.988Z,30.67
2019-06-26T07:38:50.959Z,30.75
2019-06-26T07:39:50.944Z,30.82
2019-06-26T07:40:50.976Z,30.86
2019-06-26T07:41:50.920Z,30.79
2019-06-26T07:42:50.920Z,30.73
2019-06-26T07:43:50.914Z,30.79
2019-06-26T07:44:50.891Z,30.75
2019-06-26T07:45:50.915Z,30.69
2019-06-26T07:46:50.880Z,30.73
2019-06-26T07:47:50.864Z,30.77
2019-06-26T07:48:50.863Z,30.73
2019-06-26T07:49:50.840Z,30.80
2019-06-26T07:50:50.858Z,30.75
2019-06-26T07:51:50.829Z,30.76
2019-06-26T07:52:51.065Z,30.76
2019-06-26T07:53:50.818Z,30.73
2019-06-26T07:54:50.785Z,30.82
2019-06-26T07:55:50.828Z,30.92
2019-06-26T07:56:50.768Z,30.84
2019-06-26T07:57:50.761Z,31.07
2019-06-26T08:01:41.472Z,31.34
2019-06-26T08:02:41.315Z,31.29
2019-06-26T08:03:41.315Z,31.38
2019-06-26T08:04:41.292Z,31.38
2019-06-26T08:05:42.950Z,31.31
2019-06-26T08:06:41.277Z,31.29
2019-06-26T08:07:41.289Z,31.31
2019-06-26T08:08:41.251Z,31.28
2019-06-26T08:09:41.256Z,31.16
2019-06-26T08:10:41.276Z,31.28
2019-06-26T08:11:41.226Z,31.25
2019-06-26T08:12:41.216Z,31.26
2019-06-26T08:13:41.219Z,31.38
2019-06-26T08:14:41.201Z,31.29
2019-06-26T08:15:41.196Z,31.47
2019-06-26T08:16:41.169Z,31.54
2019-06-26T08:17:41.162Z,31.56
2019-06-26T08:18:41.172Z,31.56
2019-06-26T08:19:41.156Z,31.51
2019-06-26T08:20:55.073Z,31.62
2019-06-26T08:21:42.133Z,31.66
2019-06-26T08:22:41.112Z,31.50
2019-06-26T08:23:41.126Z,31.63
2019-06-26T08:24:41.084Z,31.68
2019-06-26T08:25:41.098Z,31.66
2019-06-26T08:26:41.083Z,31.63
2019-06-26T08:27:41.065Z,31.57
2019-06-26T08:28:41.061Z,31.56
2019-06-26T08:29:41.057Z,31.63
2019-06-26T08:30:41.063Z,31.69
2019-06-26T08:31:41.027Z,31.66
2019-06-26T08:32:41.007Z,31.65
2019-06-26T08:33:41.013Z,31.63
2019-06-26T08:34:41.016Z,31.65
2019-06-26T08:35:40.997Z,31.65
2019-06-26T08:36:40.966Z,31.61
2019-06-26T08:37:40.967Z,31.80
2019-06-26T08:38:40.944Z,31.86
2019-06-26T08:39:41.778Z,31.89
2019-06-26T08:40:40.928Z,31.86
2019-06-26T08:41:40.968Z,31.91
2019-06-26T08:42:40.899Z,31.81
2019-06-26T08:43:40.895Z,31.89
2019-06-26T08:44:40.884Z,31.85
2019-06-26T08:45:40.892Z,31.92
2019-06-26T08:46:40.897Z,31.99
2019-06-26T08:47:40.876Z,31.99
2019-06-26T08:48:40.978Z,32.00
2019-06-26T08:49:40.825Z,32.15
2019-06-26T08:50:40.831Z,32.15
2019-06-26T08:51:40.835Z,32.15
2019-06-26T08:52:40.800Z,32.22
2019-06-26T08:53:40.785Z,32.30
2019-06-26T08:54:40.776Z,32.35
2019-06-26T08:55:40.760Z,32.43
2019-06-26T08:56:40.924Z,32.41
2019-06-26T08:57:40.763Z,32.41
2019-06-26T08:58:40.737Z,32.45
2019-06-26T08:59:40.741Z,32.41
2019-06-26T09:00:40.716Z,32.45
2019-06-26T09:01:40.739Z,32.48
2019-06-26T09:02:40.698Z,32.45
2019-06-26T09:03:42.155Z,32.52
2019-06-26T09:04:40.689Z,32.67
2019-06-26T09:05:47.848Z,32.74
2019-06-26T09:06:41.691Z,32.78
2019-06-26T09:07:40.641Z,32.89
2019-06-26T09:08:40.635Z,32.89
2019-06-26T09:09:40.621Z,33.03
2019-06-26T09:10:44.562Z,33.09
2019-06-26T09:11:40.596Z,33.23
2019-06-26T09:12:40.634Z,33.26
2019-06-26T09:13:40.575Z,33.23
2019-06-26T09:14:40.589Z,33.18
2019-06-26T09:15:40.589Z,33.23
2019-06-26T09:16:40.541Z,33.34
2019-06-26T09:17:40.571Z,33.34
2019-06-26T09:18:40.530Z,33.32
2019-06-26T09:19:40.513Z,33.26
2019-06-26T09:20:40.526Z,33.23
2019-06-26T09:21:40.497Z,33.31
2019-06-26T09:22:40.533Z,33.29
2019-06-26T09:23:40.477Z,33.42
2019-06-26T09:24:40.459Z,33.53
2019-06-26T09:25:40.459Z,33.51
2019-06-26T09:26:40.447Z,33.50
2019-06-26T09:27:40.493Z,33.47
2019-06-26T09:28:40.419Z,33.44
2019-06-26T09:29:40.426Z,33.60
2019-06-26T09:30:40.395Z,33.50
2019-06-26T09:31:40.409Z,33.50
2019-06-26T09:32:40.391Z,33.54
2019-06-26T09:33:40.400Z,33.49
2019-06-26T09:34:40.365Z,33.61
2019-06-26T09:35:40.367Z,33.65
2019-06-26T09:36:40.342Z,33.66
2019-06-26T09:37:40.346Z,33.61
2019-06-26T09:38:40.375Z,33.66
2019-06-26T09:39:40.318Z,33.69
2019-06-26T09:40:40.298Z,33.78
2019-06-26T09:41:40.287Z,33.81
2019-06-26T09:42:40.278Z,33.87
2019-06-26T09:43:40.308Z,33.98
2019-06-26T09:44:40.279Z,34.02
2019-06-26T09:45:40.257Z,34.02
2019-06-26T09:46:40.243Z,33.95
2019-06-26T09:47:40.225Z,33.97
2019-06-26T09:48:52.103Z,34.02
2019-06-26T09:49:41.306Z,34.17
2019-06-26T09:50:40.210Z,34.17
2019-06-26T09:51:40.212Z,34.21
2019-06-26T09:52:40.173Z,34.21
2019-06-26T09:53:46.951Z,34.34
2019-06-26T09:54:41.190Z,34.30
2019-06-26T09:55:40.149Z,34.30
2019-06-26T09:56:40.152Z,34.21
2019-06-26T09:57:40.139Z,34.31
2019-06-26T09:58:40.121Z,34.34
2019-06-26T09:59:40.335Z,34.30
2019-06-26T10:01:56.104Z,34.43
2019-06-26T10:02:56.079Z,34.40
2019-06-26T10:03:56.099Z,34.52
2019-06-26T10:04:56.094Z,34.54
2019-06-26T10:05:56.063Z,34.70
2019-06-26T10:06:58.977Z,34.70
2019-06-26T10:07:56.042Z,34.75
2019-06-26T10:08:56.037Z,34.80
2019-06-26T10:09:56.043Z,34.75
2019-06-26T10:10:56.018Z,34.87
2019-06-26T10:11:56.033Z,34.65
2019-06-26T10:12:55.978Z,34.78
2019-06-26T10:13:55.966Z,34.73
2019-06-26T10:14:55.994Z,34.75
2019-06-26T10:15:55.956Z,34.80
2019-06-26T10:16:55.955Z,34.81
2019-06-26T10:17:55.936Z,34.80
2019-06-26T10:19:09.628Z,34.94
2019-06-26T10:19:56.929Z,35.03
2019-06-26T10:20:55.904Z,35.09
2019-06-26T10:21:55.919Z,35.10
2019-06-26T10:22:55.895Z,35.14
2019-06-26T10:23:55.905Z,35.09
2019-06-26T10:24:55.869Z,34.91
2019-06-26T10:25:55.866Z,35.00
2019-06-26T10:26:55.842Z,35.02
2019-06-26T10:27:55.831Z,34.92
2019-06-26T10:28:55.823Z,34.89
2019-06-26T10:29:55.886Z,34.81
2019-06-26T10:30:55.867Z,34.82
2019-06-26T10:31:55.791Z,34.82
2019-06-26T10:32:55.773Z,34.81
2019-06-26T10:33:55.769Z,34.89
2019-06-26T10:34:55.792Z,34.97
2019-06-26T10:35:55.744Z,35.06
2019-06-26T10:36:55.737Z,35.15
2019-06-26T10:37:55.827Z,35.19
2019-06-26T10:38:55.717Z,35.14
2019-06-26T10:39:55.733Z,35.18
2019-06-26T10:40:55.715Z,35.09
2019-06-26T10:42:04.553Z,35.14
2019-06-26T10:42:55.680Z,35.09
2019-06-26T10:43:55.687Z,35.06
2019-06-26T10:44:55.701Z,35.10
2019-06-26T10:45:55.649Z,35.15
2019-06-26T10:46:55.651Z,35.16
2019-06-26T10:47:55.625Z,35.38
2019-06-26T10:48:55.629Z,35.31
2019-06-26T10:49:55.645Z,35.31
2019-06-26T10:50:58.757Z,35.22
2019-06-26T10:51:55.601Z,35.19
2019-06-26T10:52:55.584Z,35.28
2019-06-26T10:53:55.597Z,35.22
2019-06-26T10:54:55.599Z,35.29
2019-06-26T10:55:55.558Z,35.22
2019-06-26T10:56:55.566Z,35.38
2019-06-26T10:57:55.555Z,35.53
2019-06-26T10:58:55.527Z,35.53
2019-06-26T10:59:56.048Z,35.71
2019-06-26T11:00:55.504Z,35.94
2019-06-26T11:01:55.491Z,36.23
2019-06-26T11:02:55.483Z,36.31
2019-06-26T11:03:55.487Z,36.38
2019-06-26T11:04:55.490Z,36.59
2019-06-26T11:05:55.483Z,36.84
2019-06-26T11:06:55.496Z,37.00
2019-06-26T11:07:55.468Z,37.18
2019-06-26T11:08:55.441Z,37.36
2019-06-26T11:09:55.455Z,37.40
2019-06-26T11:10:55.440Z,37.47
2019-06-26T11:11:55.443Z,37.75
2019-06-26T11:12:55.440Z,37.91
2019-06-26T11:13:55.397Z,38.19
2019-06-26T11:14:55.439Z,38.22
2019-06-26T11:15:55.401Z,38.35
2019-06-26T11:16:55.399Z,38.61
2019-06-26T11:17:55.390Z,38.90
2019-06-26T11:18:55.391Z,39.06
2019-06-26T11:19:55.754Z,38.91
2019-06-26T11:20:55.346Z,38.20
2019-06-26T11:21:55.339Z,38.35
2019-06-26T11:22:55.331Z,39.22
2019-06-26T11:23:55.319Z,39.59
2019-06-26T11:24:55.356Z,40.08
2019-06-26T11:25:55.327Z,39.70
2019-06-26T11:26:55.311Z,39.38
2019-06-26T11:27:55.281Z,40.03
2019-06-26T11:28:55.263Z,40.27
2019-06-26T11:29:55.273Z,40.20
2019-06-26T11:30:55.280Z,39.98
2019-06-26T11:31:55.285Z,39.97
2019-06-26T11:32:55.257Z,39.75
2019-06-26T11:33:55.234Z,39.41
2019-06-26T11:34:55.251Z,38.76
2019-06-26T11:35:55.273Z,39.26
2019-06-26T11:37:03.802Z,39.82
2019-06-26T11:37:56.217Z,40.57
2019-06-26T11:38:55.205Z,40.64
2019-06-26T11:39:55.223Z,40.72
2019-06-26T11:40:55.379Z,40.89
2019-06-26T11:41:55.165Z,41.02
2019-06-26T11:42:55.151Z,40.95
2019-06-26T11:43:55.172Z,40.70
2019-06-26T11:44:55.143Z,41.18
2019-06-26T11:45:55.206Z,41.23
2019-06-26T11:46:55.164Z,41.29
2019-06-26T11:47:55.125Z,41.29
2019-06-26T11:48:55.107Z,41.58
2019-06-26T11:50:00.034Z,41.69
2019-06-26T11:50:56.112Z,41.04
2019-06-26T11:51:55.091Z,40.99
2019-06-26T11:52:55.099Z,40.34
2019-06-26T11:53:55.067Z,39.62
2019-06-26T11:55:02.784Z,39.69
2019-06-26T11:55:56.072Z,40.22
2019-06-26T11:56:55.053Z,40.12
2019-06-26T11:57:55.041Z,39.66
2019-06-26T11:58:55.028Z,38.87
2019-06-26T11:59:55.053Z,38.98
2019-06-26T12:00:55.051Z,39.55
2019-06-26T12:01:55.003Z,39.84
2019-06-26T12:02:54.994Z,40.00
2019-06-26T12:03:55.020Z,40.55
2019-06-26T12:04:54.997Z,41.08
2019-06-26T12:06:07.632Z,41.69
2019-06-26T12:06:55.963Z,41.69
2019-06-26T12:07:55.010Z,41.23
2019-06-26T12:08:54.950Z,41.49
2019-06-26T12:09:55.035Z,41.42
2019-06-26T12:10:54.958Z,41.71
2019-06-26T12:11:54.927Z,41.84
2019-06-26T12:12:54.941Z,41.73
2019-06-26T12:13:54.931Z,41.58
2019-06-26T12:14:54.910Z,41.78
2019-06-26T12:15:54.919Z,41.64
2019-06-26T12:16:54.917Z,41.33
2019-06-26T12:17:54.901Z,41.57
2019-06-26T12:18:54.906Z,41.01
2019-06-26T12:19:54.891Z,40.60
2019-06-26T12:20:54.883Z,40.03
2019-06-26T12:21:54.886Z,39.28
2019-06-26T12:22:54.840Z,39.50
2019-06-26T12:23:55.103Z,40.04
2019-06-26T12:24:54.843Z,40.29
2019-06-26T12:25:54.827Z,40.41
2019-06-26T12:26:54.835Z,40.51
2019-06-26T12:27:54.793Z,40.79
2019-06-26T12:28:54.801Z,40.92
2019-06-26T12:29:54.784Z,41.42
2019-06-26T12:30:54.773Z,40.94
2019-06-26T12:31:54.814Z,41.02
2019-06-26T12:33:02.922Z,41.30
2019-06-26T12:33:55.751Z,41.51
2019-06-26T12:34:54.738Z,41.13
2019-06-26T12:35:54.758Z,41.26
2019-06-26T12:36:54.745Z,41.62
2019-06-26T12:37:54.723Z,41.29
2019-06-26T12:38:54.750Z,41.07
2019-06-26T12:39:54.768Z,41.49
2019-06-26T12:40:54.891Z,41.83
2019-06-26T12:41:54.685Z,41.89
2019-06-26T12:42:55.841Z,41.30
2019-06-26T12:43:54.708Z,40.55
2019-06-26T12:44:54.676Z,40.39
2019-06-26T12:45:54.657Z,40.58
2019-06-26T12:46:55.767Z,41.02
2019-06-26T12:47:54.917Z,41.42
2019-06-26T12:48:54.624Z,40.98
2019-06-26T12:49:54.628Z,40.54
2019-06-26T12:50:54.614Z,40.20
2019-06-26T12:51:54.707Z,39.77
2019-06-26T12:52:54.623Z,39.57
2019-06-26T12:53:58.326Z,39.36
2019-06-26T12:54:54.573Z,39.62
2019-06-26T12:55:54.567Z,39.54
2019-06-26T12:56:54.552Z,39.45